BBRO2: Mountain Fork, Broken Bow Rereg

                                SHEF ID:       BBRO2     Mountain Fork Re-regulation Dam
STATION TYPE:

STAGE RIV-FLOW VOLTAGE BAT-LOAD
ft cfs volt volt
Ccp-Rev Ccp-Rev Ccp-Rev Ccp-Rev
(America/Chicago)
05/05 00:00 394.83 2750 13.19 12.57
05/05 01:00 394.19 2404 13.17 12.57
05/05 02:00 393.58 2049 13.20 12.58
05/05 03:00 393.06 1765 13.19 12.59
05/05 04:00 392.57 1538 13.19 12.58
05/05 05:00 392.16 1370 13.19 12.59
05/05 06:00 391.78 1214 13.19 12.59
05/05 07:00 391.44 1078 13.19 12.59
05/05 08:00 391.15 975 13.09 12.59
05/05 09:00 390.89 870 13.19 12.59
05/05 10:00 390.65 761 13.19 12.59
05/05 11:00 390.45 681 13.19 12.58
05/05 12:00 390.27 616 13.19 12.57
05/05 13:00 390.10 560 13.19 12.59
05/05 14:00 389.95 512 13.20 12.56
05/05 15:00 389.83 471 13.19 12.53
05/05 16:00 389.71 433 13.09 12.53
05/05 17:00 389.73 439 13.19 12.54
05/05 18:00 390.97 910 13.19 12.55
05/05 19:00 392.67 1581 13.19 12.54
05/05 20:00 393.84 2207 13.19 12.54
05/05 21:00 393.37 1929 13.18 12.54
05/05 22:00 392.87 1673 13.19 12.55
05/05 23:00 392.43 1478 13.20 12.55
Data processed at Wed 06May2026 04:34 GMT

NOTICE: If you are parsing this page

Please convert to using our Data API. Starting early 2026 we will be migrating to: https://water.usace.army.mil with modern pages rendered in JavaScript. When this migration completes you will no longer be able to scrape this page! CWMSDataAPI (CDA)

Timeseries IDs (TSIDs)

TSIDs used from left to right in the data table
BROM.Stage.Inst.1Hour.0.Ccp-Rev
BROM.Flow.Inst.1Hour.0.Ccp-Rev
BROM.Volt-Battery.Inst.1Hour.0.Ccp-Rev
BROM.Volt-Battery Load.Inst.1Hour.0.Ccp-Rev

                            

All information presented herein is the property of the government of the United States of America and may be revised or deleted at any time without prior notice. Dissemination of this information without the expressed written consent of the Public Affairs Office, Tulsa District U.S. Army Corps of Engineers is strictly prohibited. These data are gathered electronically and, as presented, have NOT undergone any form of quality control. These data are NOT guaranteed to be valid or correct.